Terminal Aerodrome Forecast
Issued by NWS Wilmington, OH

Home | Current Version | Previous Version | Text Only | Print | Product List | Glossary On
Versions: 1 2 3 4 5 6 7 8 9 10 11 12 13 14 15 16 17 18
000
FTUS41 KILN 052300
TAFCMH
TAF
KCMH 052320Z 0600/0624 16003KT P6SM FEW080
     FM061700 25006KT P6SM SCT070=

USA.gov is the U.S. government's official web portal to all federal, state and local government web resources and services.